Time;durP1;ratioP1;P1;durP2;ratioP2;P2;SDS_P1;SDS_P2;PMS_P1;PMS_P2;Temp;Humidity;BMP_temperature;BMP_pressure;BME280_temperature;BME280_humidity;BME280_pressure;Samples;Min_cycle;Max_cycle;Signal;HPM_P1;HPM_P2
2022/02/04 10:46:19;;;;;;;564.58;276.77;;;;;;;;;;5125674;27;20112;-75
2022/02/04 10:49:05;;;;;;;445.38;244.77;;;;;;;;;;5131312;28;20553;-78
2022/02/04 10:51:52;;;;;;;583.42;278.15;;;;;;;;;;5128275;28;20026;-75
2022/02/04 10:55:01;;;;;;;393.00;209.40;;;;;;;;;;5138274;28;20397;-75
2022/02/04 11:00:11;;;;;;;333.00;174.30;;;;;;;;;;5133515;28;20027;-77
2022/02/04 11:03:12;;;;;;;639.75;547.42;;;;;;;;;;5091351;28;20378;-77
2022/02/04 11:36:20;;;;;;;467.63;416.23;;;;;;;;;;5108433;28;20028;-79
2022/02/04 11:52:26;;;;;;;398.58;360.73;;;;;;;;;;5090958;28;20483;-81
2022/02/04 11:54:55;;;;;;;9.80;5.30;;;;;;;;;;5108856;28;20375;-76
2022/02/04 11:58:03;;;;;;;5.50;3.33;;;;;;;;;;5110264;27;20416;-80
2022/02/04 12:03:38;;;;;;;9.20;3.38;;;;;;;;;;5110790;27;20427;-81
2022/02/04 12:06:05;;;;;;;9.85;4.68;;;;;;;;;;5109341;28;20028;-76
2022/02/04 12:08:32;;;;;;;10.90;6.05;;;;;;;;;;5110033;28;20055;-74
2022/02/04 12:11:00;;;;;;;22.42;10.63;;;;;;;;;;5110798;28;20030;-80
2022/02/04 12:13:26;;;;;;;14.07;6.22;;;;;;;;;;5109921;28;20418;-78
2022/02/04 12:16:10;;;;;;;24.10;12.57;;;;;;;;;;5130720;27;20819;-76
2022/02/04 12:20:51;;;;;;;16.63;9.15;;;;;;;;;;5107949;27;20834;-80
2022/02/04 12:25:10;;;;;;;16.90;9.32;;;;;;;;;;5069031;28;20399;-76
2022/02/04 12:27:38;;;;;;;10.90;6.25;;;;;;;;;;5068629;28;20035;-81
2022/02/04 12:30:31;;;;;;;10.15;5.45;;;;;;;;;;5109308;27;20385;-76
2022/02/04 12:32:57;;;;;;;11.07;6.57;;;;;;;;;;5109437;28;20055;-86
2022/02/04 12:35:28;;;;;;;17.63;9.07;;;;;;;;;;5111398;28;20077;-84
2022/02/04 12:37:54;;;;;;;16.40;7.15;;;;;;;;;;5109598;28;20024;-81
2022/02/04 12:40:24;;;;;;;16.65;8.88;;;;;;;;;;5108450;28;20024;-78
2022/02/04 12:42:50;;;;;;;16.48;8.70;;;;;;;;;;5108785;28;20047;-75
2022/02/04 12:45:17;;;;;;;15.13;7.57;;;;;;;;;;5110126;28;20047;-76
2022/02/04 12:48:58;;;;;;;7.72;4.00;;;;;;;;;;5110208;27;20391;-84
2022/02/04 12:55:47;;;;;;;16.65;9.30;;;;;;;;;;5110174;27;20412;-76
2022/02/04 12:58:36;;;;;;;11.80;5.85;;;;;;;;;;5127332;28;20178;-78
2022/02/04 13:03:01;;;;;;;6.72;2.80;;;;;;;;;;5111196;27;20115;-75
2022/02/04 13:09:00;;;;;;;8.13;3.83;;;;;;;;;;5094978;28;20035;-76
2022/02/04 13:11:26;;;;;;;7.75;3.97;;;;;;;;;;5086871;28;20048;-74
2022/02/04 13:13:57;;;;;;;17.10;11.30;;;;;;;;;;5087425;28;20021;-74
2022/02/04 13:17:58;;;;;;;11.95;7.28;;;;;;;;;;5108817;27;20744;-71
2022/02/04 13:20:25;;;;;;;12.45;4.97;;;;;;;;;;5110242;28;20089;-73
2022/02/04 13:25:06;;;;;;;8.52;3.53;;;;;;;;;;5110100;27;20415;-76
2022/02/04 13:27:32;;;;;;;18.58;4.10;;;;;;;;;;5110388;28;20032;-72
2022/02/04 13:31:54;;;;;;;10.80;4.97;;;;;;;;;;5069459;28;20406;-74
2022/02/04 13:34:26;;;;;;;9.95;5.07;;;;;;;;;;5067555;28;20408;-76
2022/02/04 13:37:13;;;;;;;21.70;12.93;;;;;;;;;;5048971;28;20388;-74
2022/02/04 13:39:54;;;;;;;21.52;11.50;;;;;;;;;;5049345;28;20052;-72
2022/02/04 13:45:43;;;;;;;10.18;5.03;;;;;;;;;;5108678;27;20408;-74
2022/02/04 13:48:25;;;;;;;11.73;6.53;;;;;;;;;;5108298;28;20028;-75
2022/02/04 13:51:04;;;;;;;13.50;7.68;;;;;;;;;;5086440;28;20111;-81
2022/02/04 13:53:36;;;;;;;439.10;328.27;;;;;;;;;;5088621;28;20029;-79
2022/02/04 13:56:29;;;;;;;;;;;;;;;;;;5068714;28;20396;-75
2022/02/04 13:58:57;;;;;;;;;;;;;;;;;;5069134;28;19913;-74
2022/02/04 14:02:26;;;;;;;718.45;667.50;;;;;;;;;;5107861;27;20827;-75
2022/02/04 14:05:02;;;;;;;652.60;597.38;;;;;;;;;;5109019;27;20424;-75
2022/02/04 14:07:53;;;;;;;;;;;;;;;;;;5068188;28;20477;-76
2022/02/04 14:11:02;;;;;;;;;;;;;;;;;;5152266;27;19916;-74
2022/02/04 14:13:28;;;;;;;;;;;;;;;;;;5152964;27;20382;-77
2022/02/04 14:15:56;;;;;;;;;;;;;;;;;;5151316;27;19992;-74
2022/02/04 14:20:48;;;;;;;16.95;8.05;;;;;;;;;;5069004;28;20415;-73
2022/02/04 14:23:14;;;;;;;16.42;8.60;;;;;;;;;;5069762;28;20035;-74
2022/02/04 14:28:47;;;;;;;14.20;8.35;;;;;;;;;;5071325;28;20477;-83
2022/02/04 14:31:19;;;;;;;13.73;8.77;;;;;;;;;;5070310;28;20152;-76
2022/02/04 14:50:21;;;;;;;14.73;6.43;;;;;;;;;;5073737;28;20088;-81
2022/02/04 14:52:40;;;;;;;10.57;5.30;;;;;;;;;;5090196;28;20028;-83
2022/02/04 15:02:49;;;;;;;15.57;7.68;;;;;;;;;;5071352;27;20396;-79
2022/02/04 15:05:19;;;;;;;;;;;;;;;;;;5071194;28;20032;-77
2022/02/04 15:10:39;;;;;;;14.15;7.25;;;;;;;;;;5071986;28;20420;-79
2022/02/04 15:13:12;;;;;;;14.77;7.97;;;;;;;;;;5070094;28;20035;-76
2022/02/04 15:15:55;;;;;;;15.70;8.60;;;;;;;;;;5131556;27;20319;-79
2022/02/04 15:18:22;;;;;;;14.10;7.15;;;;;;;;;;5111405;28;20032;-80
2022/02/04 15:21:11;;;;;;;13.05;7.20;;;;;;;;;;5111497;27;20404;-79
2022/02/04 15:23:38;;;;;;;14.17;7.63;;;;;;;;;;5111721;28;20058;-82
2022/02/04 15:28:19;;;;;;;19.65;10.73;;;;;;;;;;5071534;28;20400;-80
2022/02/04 15:30:47;;;;;;;15.27;6.43;;;;;;;;;;5071137;28;20044;-81
2022/02/04 15:33:13;;;;;;;8.68;4.45;;;;;;;;;;5070302;28;20100;-81
2022/02/04 15:35:39;;;;;;;8.18;3.75;;;;;;;;;;5070684;28;20017;-81
2022/02/04 15:38:27;;;;;;;18.13;5.80;;;;;;;;;;5091327;27;20429;-81
2022/02/04 15:42:18;;;;;;;25.60;13.77;;;;;;;;;;5111968;27;20933;-81
2022/02/04 15:45:13;;;;;;;25.77;13.35;;;;;;;;;;5111857;28;20024;-82
2022/02/04 15:47:56;;;;;;;21.83;12.18;;;;;;;;;;5111096;28;20081;-84
2022/02/04 15:50:30;;;;;;;26.48;14.38;;;;;;;;;;5110116;28;20024;-82
2022/02/04 15:53:21;;;;;;;24.25;14.00;;;;;;;;;;5109679;28;20055;-84
2022/02/04 15:56:10;;;;;;;29.52;16.88;;;;;;;;;;5111184;28;20099;-84
2022/02/04 15:58:56;;;;;;;32.70;20.77;;;;;;;;;;5109976;28;20059;-82
2022/02/04 16:04:21;;;;;;;35.75;20.63;;;;;;;;;;5110971;28;20024;-84
2022/02/04 16:06:48;;;;;;;38.13;22.25;;;;;;;;;;5110603;28;20055;-83
2022/02/04 16:09:15;;;;;;;54.78;27.20;;;;;;;;;;5109631;28;20020;-82
2022/02/04 16:14:19;;;;;;;96.28;57.35;;;;;;;;;;5110449;28;20097;-81
2022/02/04 16:16:51;;;;;;;74.80;47.53;;;;;;;;;;5109283;28;20043;-82
2022/02/04 16:19:44;;;;;;;88.63;57.10;;;;;;;;;;5108738;28;20024;-81
2022/02/04 16:22:13;;;;;;;117.68;68.85;;;;;;;;;;5108836;28;20112;-81
2022/02/04 16:30:00;;;;;;;120.20;73.85;;;;;;;;;;5109887;28;20039;-84
2022/02/04 16:32:28;;;;;;;97.45;55.75;;;;;;;;;;5109455;28;20024;-84
2022/02/04 16:34:55;;;;;;;90.40;53.13;;;;;;;;;;5111152;28;20098;-84
2022/02/04 16:37:34;;;;;;;105.53;56.88;;;;;;;;;;5111946;28;20030;-84
2022/02/04 16:40:05;;;;;;;148.80;82.30;;;;;;;;;;5114886;28;20016;-83
2022/02/04 16:42:33;;;;;;;69.82;43.67;;;;;;;;;;5113951;28;20023;-83
2022/02/04 16:44:59;;;;;;;126.10;69.05;;;;;;;;;;5114308;28;20012;-83
2022/02/04 16:47:25;;;;;;;116.00;69.93;;;;;;;;;;5110945;28;20028;-83
2022/02/04 16:49:51;;;;;;;105.60;58.88;;;;;;;;;;5110178;28;20024;-83
2022/02/04 16:52:17;;;;;;;81.70;49.25;;;;;;;;;;5104042;28;20082;-83
2022/02/04 16:54:44;;;;;;;75.03;41.67;;;;;;;;;;5097770;28;20044;-85
2022/02/04 16:57:10;;;;;;;67.57;40.47;;;;;;;;;;5096718;28;20051;-84
2022/02/04 16:59:36;;;;;;;134.07;64.72;;;;;;;;;;5097006;28;20020;-85
2022/02/04 17:02:04;;;;;;;102.72;50.53;;;;;;;;;;5096736;28;20165;-84
2022/02/04 17:04:31;;;;;;;77.28;42.63;;;;;;;;;;5095110;28;20357;-84
2022/02/04 17:07:01;;;;;;;74.82;42.47;;;;;;;;;;5096554;28;20027;-83
2022/02/04 17:09:31;;;;;;;86.32;46.13;;;;;;;;;;5096660;28;20023;-83
2022/02/04 17:12:03;;;;;;;67.32;39.83;;;;;;;;;;5094884;28;20557;-82
2022/02/04 17:14:30;;;;;;;83.40;47.03;;;;;;;;;;5096603;28;20016;-84
2022/02/04 17:16:57;;;;;;;76.97;41.22;;;;;;;;;;5095231;28;20028;-84
2022/02/04 17:19:27;;;;;;;74.75;43.38;;;;;;;;;;5094754;28;20368;-82
2022/02/04 17:21:55;;;;;;;75.40;39.85;;;;;;;;;;5096647;28;20035;-82
2022/02/04 17:24:22;;;;;;;99.45;57.28;;;;;;;;;;5095796;28;20027;-83
2022/02/04 17:26:48;;;;;;;133.35;78.20;;;;;;;;;;5096235;28;20528;-84
2022/02/04 17:29:14;;;;;;;134.43;84.38;;;;;;;;;;5096068;28;20042;-83
2022/02/04 17:31:41;;;;;;;133.88;83.53;;;;;;;;;;5094383;28;20460;-84
2022/02/04 17:34:07;;;;;;;131.98;81.75;;;;;;;;;;5096224;28;20024;-83
2022/02/04 17:36:37;;;;;;;136.27;81.45;;;;;;;;;;5096069;28;20013;-84
2022/02/04 17:39:15;;;;;;;120.97;70.75;;;;;;;;;;5095996;28;20028;-86
2022/02/04 17:41:41;;;;;;;129.00;80.00;;;;;;;;;;5096238;28;20070;-85
2022/02/04 17:44:08;;;;;;;80.93;46.03;;;;;;;;;;5095232;28;20027;-85
2022/02/04 17:46:34;;;;;;;44.53;28.08;;;;;;;;;;5095768;28;20031;-84
2022/02/04 17:49:12;;;;;;;40.95;23.27;;;;;;;;;;5096154;28;20020;-83
2022/02/04 17:51:48;;;;;;;40.40;23.55;;;;;;;;;;5095366;28;20024;-84
2022/02/04 17:54:18;;;;;;;51.88;27.58;;;;;;;;;;5095873;28;20103;-84
2022/02/04 17:57:01;;;;;;;41.92;24.63;;;;;;;;;;5096155;28;20106;-86
2022/02/04 18:02:04;;;;;;;56.35;29.80;;;;;;;;;;5096960;28;20039;-85
2022/02/04 18:07:22;;;;;;;54.10;28.33;;;;;;;;;;5096034;28;20043;-85
2022/02/04 18:09:49;;;;;;;54.50;33.63;;;;;;;;;;5095783;28;20020;-84
2022/02/04 18:12:21;;;;;;;61.50;34.92;;;;;;;;;;5096055;28;20095;-84
2022/02/04 18:14:47;;;;;;;50.42;34.15;;;;;;;;;;5094403;28;20059;-84
2022/02/04 18:17:14;;;;;;;45.88;28.13;;;;;;;;;;5093499;28;20521;-84
2022/02/04 18:19:41;;;;;;;81.18;41.38;;;;;;;;;;5094229;28;20058;-85
2022/02/04 18:22:07;;;;;;;92.00;48.25;;;;;;;;;;5093789;28;20047;-85
2022/02/04 18:24:34;;;;;;;80.30;46.00;;;;;;;;;;5095484;28;20070;-84
2022/02/04 18:27:00;;;;;;;73.13;40.83;;;;;;;;;;5096591;28;20031;-85
2022/02/04 18:29:26;;;;;;;70.05;44.13;;;;;;;;;;5105469;28;20610;-83
2022/02/04 18:31:54;;;;;;;72.13;41.70;;;;;;;;;;5108904;28;20036;-85
2022/02/04 18:34:20;;;;;;;85.15;47.13;;;;;;;;;;5112435;28;20066;-84
2022/02/04 18:36:48;;;;;;;96.03;53.63;;;;;;;;;;5093924;28;20020;-86
2022/02/04 18:42:42;;;;;;;149.88;81.40;;;;;;;;;;5081838;28;20051;-85
2022/02/04 18:45:14;;;;;;;139.68;77.35;;;;;;;;;;5094856;28;20028;-85
2022/02/04 18:51:07;;;;;;;120.78;67.68;;;;;;;;;;5097307;28;20025;-83
2022/02/04 18:58:19;;;;;;;62.13;37.50;;;;;;;;;;5094910;28;20035;-84
2022/02/04 19:00:48;;;;;;;73.00;43.28;;;;;;;;;;5093390;28;20047;-84
2022/02/04 19:03:21;;;;;;;82.80;47.17;;;;;;;;;;5094317;28;20032;-84
2022/02/04 19:06:36;;;;;;;;;;;;;;;;;;5094903;28;20023;-84
2022/02/04 19:08:39;;;;;;;72.00;43.38;;;;;;;;;;5093979;28;19904;-81
2022/02/04 19:11:06;;;;;;;69.10;41.07;;;;;;;;;;5094523;28;20027;-83
2022/02/04 19:13:43;;;;;;;59.00;38.60;;;;;;;;;;5093798;28;20027;-82
2022/02/04 19:16:20;;;;;;;58.35;33.28;;;;;;;;;;5094216;28;20016;-83
2022/02/04 19:21:21;;;;;;;50.60;30.85;;;;;;;;;;5094413;28;20040;-84
2022/02/04 19:23:50;;;;;;;49.17;29.27;;;;;;;;;;5092985;28;20047;-85
2022/02/04 19:26:24;;;;;;;42.50;27.52;;;;;;;;;;5094397;28;20380;-85
2022/02/04 19:28:51;;;;;;;55.47;32.08;;;;;;;;;;5094250;28;20497;-85
2022/02/04 19:31:17;;;;;;;103.22;50.47;;;;;;;;;;5093963;28;20391;-84
2022/02/04 19:33:45;;;;;;;103.28;51.90;;;;;;;;;;5092861;28;20030;-84
2022/02/04 19:36:11;;;;;;;83.38;47.42;;;;;;;;;;5094108;28;20046;-85
2022/02/04 19:38:38;;;;;;;88.30;48.20;;;;;;;;;;5093199;28;20044;-83
2022/02/04 19:41:05;;;;;;;103.80;56.70;;;;;;;;;;5093936;28;20514;-83
2022/02/04 19:43:34;;;;;;;131.70;68.60;;;;;;;;;;5092885;28;20016;-83
2022/02/04 19:46:08;;;;;;;145.85;76.57;;;;;;;;;;5094288;28;20081;-84
2022/02/04 19:48:39;;;;;;;143.35;74.13;;;;;;;;;;5096560;28;20050;-83
2022/02/04 20:16:50;;;;;;;61.58;36.78;;;;;;;;;;5094357;28;20024;-84
2022/02/04 20:23:48;;;;;;;84.53;44.17;;;;;;;;;;5094085;28;20074;-83
2022/02/04 20:26:15;;;;;;;66.63;37.73;;;;;;;;;;5092686;28;20476;-84
2022/02/04 20:28:41;;;;;;;61.92;34.53;;;;;;;;;;5096780;28;20298;-85
2022/02/04 20:31:07;;;;;;;82.18;44.05;;;;;;;;;;5097396;28;20099;-84
2022/02/04 20:33:34;;;;;;;90.65;49.67;;;;;;;;;;5095229;28;20077;-83
2022/02/04 20:36:00;;;;;;;88.65;51.60;;;;;;;;;;5095482;28;20020;-83
2022/02/04 20:38:33;;;;;;;104.78;57.88;;;;;;;;;;5097576;28;20095;-84
2022/02/04 20:41:10;;;;;;;77.40;45.60;;;;;;;;;;5096734;28;20158;-83
2022/02/04 20:43:36;;;;;;;64.88;34.33;;;;;;;;;;5096063;28;20032;-83
2022/02/04 20:46:03;;;;;;;68.10;38.33;;;;;;;;;;5095632;28;20020;-82
2022/02/04 20:48:35;;;;;;;50.75;29.30;;;;;;;;;;5094772;28;20426;-83
2022/02/04 20:51:02;;;;;;;51.38;28.23;;;;;;;;;;5093959;28;20024;-83
2022/02/04 20:53:28;;;;;;;45.90;24.90;;;;;;;;;;5093629;28;20035;-83
2022/02/04 20:55:54;;;;;;;63.78;33.80;;;;;;;;;;5093069;28;20519;-85
2022/02/04 20:58:23;;;;;;;30.63;20.35;;;;;;;;;;5093795;28;20028;-85
2022/02/04 21:00:49;;;;;;;25.10;16.27;;;;;;;;;;5094366;28;20043;-86
2022/02/04 21:03:15;;;;;;;32.13;18.00;;;;;;;;;;5095138;28;20089;-84
2022/02/04 21:16:07;;;;;;;43.78;21.52;;;;;;;;;;5096840;28;20441;-83
2022/02/04 21:18:33;;;;;;;39.53;19.95;;;;;;;;;;5094896;28;20050;-83
2022/02/04 21:20:59;;;;;;;34.55;20.30;;;;;;;;;;5096732;28;20035;-84
2022/02/04 21:23:26;;;;;;;30.08;15.45;;;;;;;;;;5096858;28;20107;-84
2022/02/04 21:25:54;;;;;;;42.60;22.05;;;;;;;;;;5096601;28;20114;-85
2022/02/04 21:28:23;;;;;;;46.33;27.10;;;;;;;;;;5095031;28;20020;-84
2022/02/04 21:30:50;;;;;;;44.90;29.08;;;;;;;;;;5095755;28;20031;-85
2022/02/04 21:33:35;;;;;;;44.88;27.98;;;;;;;;;;5094849;28;20028;-84
2022/02/04 21:38:47;;;;;;;71.50;40.30;;;;;;;;;;5095991;28;20062;-85
2022/02/04 21:41:14;;;;;;;63.78;38.85;;;;;;;;;;5095689;28;20070;-84
2022/02/04 21:43:42;;;;;;;68.65;39.88;;;;;;;;;;5094507;28;20498;-84
2022/02/04 21:46:09;;;;;;;60.70;34.05;;;;;;;;;;5094140;28;20028;-83
2022/02/04 21:48:44;;;;;;;60.80;33.10;;;;;;;;;;5095852;28;20020;-83
2022/02/04 21:51:10;;;;;;;55.08;32.40;;;;;;;;;;5095771;28;20103;-83
2022/02/04 21:53:36;;;;;;;52.90;31.88;;;;;;;;;;5094195;28;20384;-82
2022/02/04 21:56:03;;;;;;;69.88;37.90;;;;;;;;;;5095620;28;20034;-84
2022/02/04 21:58:29;;;;;;;56.22;30.58;;;;;;;;;;5095581;28;20028;-85
2022/02/04 22:00:55;;;;;;;53.85;29.52;;;;;;;;;;5096021;28;20039;-85
2022/02/04 22:03:22;;;;;;;55.00;28.10;;;;;;;;;;5096286;28;20034;-84
2022/02/04 22:05:50;;;;;;;49.25;28.30;;;;;;;;;;5095767;28;20036;-85
2022/02/04 22:08:31;;;;;;;48.50;26.73;;;;;;;;;;5095877;28;20189;-85
2022/02/04 22:22:09;;;;;;;49.60;28.23;;;;;;;;;;5095131;28;20434;-84
2022/02/04 22:24:35;;;;;;;48.13;28.42;;;;;;;;;;5095539;28;20016;-86
2022/02/04 22:27:02;;;;;;;42.08;22.45;;;;;;;;;;5096180;28;20464;-84
2022/02/04 22:29:33;;;;;;;31.92;16.58;;;;;;;;;;5095459;28;20460;-83
2022/02/04 22:32:05;;;;;;;26.45;12.85;;;;;;;;;;5095228;28;20016;-83
2022/02/04 22:34:41;;;;;;;31.38;15.25;;;;;;;;;;5093449;28;20402;-84
2022/02/04 22:37:27;;;;;;;32.67;17.77;;;;;;;;;;5093879;28;20118;-84
2022/02/04 22:43:03;;;;;;;47.40;27.33;;;;;;;;;;5082948;28;20085;-84
2022/02/04 22:51:13;;;;;;;56.80;30.00;;;;;;;;;;5094711;28;20059;-84
2022/02/04 22:56:40;;;;;;;41.17;21.45;;;;;;;;;;5094628;28;20024;-84
2022/02/04 22:59:16;;;;;;;35.38;19.60;;;;;;;;;;5093911;28;20415;-85
2022/02/04 23:01:45;;;;;;;37.00;19.80;;;;;;;;;;5094256;28;20028;-85
2022/02/04 23:04:13;;;;;;;58.63;29.42;;;;;;;;;;5093675;28;20050;-84
2022/02/04 23:06:40;;;;;;;73.32;36.75;;;;;;;;;;5093478;28;20028;-85
2022/02/04 23:09:09;;;;;;;81.18;43.03;;;;;;;;;;5093032;28;20107;-84
2022/02/04 23:11:38;;;;;;;81.03;44.95;;;;;;;;;;5093445;28;20030;-85
2022/02/04 23:16:46;;;;;;;80.47;42.60;;;;;;;;;;5094769;28;20081;-85
2022/02/04 23:19:18;;;;;;;66.15;35.05;;;;;;;;;;5093965;28;20411;-85
2022/02/04 23:21:50;;;;;;;45.17;25.85;;;;;;;;;;5093876;28;20032;-85
2022/02/04 23:24:24;;;;;;;43.33;24.60;;;;;;;;;;5094564;28;20085;-84
2022/02/04 23:26:54;;;;;;;51.97;27.60;;;;;;;;;;5095337;28;20256;-85
2022/02/04 23:45:40;;;;;;;24.08;13.68;;;;;;;;;;5094216;28;20032;-84
2022/02/04 23:50:51;;;;;;;29.20;12.15;;;;;;;;;;5096059;28;20027;-83
2022/02/04 23:53:17;;;;;;;26.08;15.95;;;;;;;;;;5099045;28;20028;-83
2022/02/04 23:55:44;;;;;;;23.15;12.68;;;;;;;;;;5100870;28;20027;-84
2022/02/04 23:58:10;;;;;;;21.23;11.35;;;;;;;;;;5098039;28;20059;-84
